Time;durP1;ratioP1;P1;durP2;ratioP2;P2;SDS_P1;SDS_P2;PMS_P1;PMS_P2;Temp;Humidity;BMP_temperature;BMP_pressure;BME280_temperature;BME280_humidity;BME280_pressure;Samples;Min_cycle;Max_cycle;Signal;HPM_P1;HPM_P2
2024/01/08 00:01:36;;;;;;;9.18;5.20;;;;;;;-2.05;95.51;102987.41;6243134;23;20026;-87
2024/01/08 00:04:03;;;;;;;9.07;4.95;;;;;;;-2.05;95.76;102987.41;6216367;23;20000;-87
2024/01/08 00:06:28;;;;;;;9.63;5.40;;;;;;;-2.06;96.18;102985.59;6215488;23;20451;-87
2024/01/08 00:08:55;;;;;;;9.32;5.00;;;;;;;-2.04;96.81;102984.13;6216163;23;20007;-88
2024/01/08 00:11:20;;;;;;;9.25;4.65;;;;;;;-2.02;96.23;102985.19;6215428;23;20000;-88
2024/01/08 00:13:45;;;;;;;8.93;5.00;;;;;;;-2.03;96.08;102983.38;6216054;23;20004;-87
2024/01/08 00:16:11;;;;;;;9.45;5.45;;;;;;;-2.01;96.41;102975.91;6215932;23;20028;-87
2024/01/08 00:18:36;;;;;;;11.30;5.93;;;;;;;-2.01;96.16;102984.44;6216154;23;20012;-88
2024/01/08 00:21:02;;;;;;;9.88;4.97;;;;;;;-2.02;95.77;102982.63;6215572;23;20047;-88
2024/01/08 00:23:29;;;;;;;9.55;4.85;;;;;;;-2.04;95.87;102986.69;6242537;23;20351;-87
2024/01/08 00:25:54;;;;;;;9.85;5.53;;;;;;;-2.04;95.99;102989.22;6242942;23;20117;-88
2024/01/08 00:28:20;;;;;;;10.25;5.55;;;;;;;-2.03;96.10;102987.56;6216061;23;20035;-87
2024/01/08 00:30:45;;;;;;;9.57;4.97;;;;;;;-2.02;96.53;102987.75;6215196;23;20000;-87
2024/01/08 00:33:11;;;;;;;9.93;5.53;;;;;;;-2.01;96.22;102992.13;6241969;23;20000;-87
2024/01/08 00:35:36;;;;;;;11.20;6.50;;;;;;;-2.01;96.70;102989.56;6215553;23;20050;-87
2024/01/08 00:38:01;;;;;;;13.88;6.70;;;;;;;-1.99;96.78;102990.63;6216314;23;20004;-87
2024/01/08 00:40:27;;;;;;;14.45;7.78;;;;;;;-2.00;96.30;102993.94;6215532;23;20066;-87
2024/01/08 00:42:52;;;;;;;17.50;9.70;;;;;;;-2.00;96.27;102986.28;6215888;23;20004;-88
2024/01/08 00:45:17;;;;;;;17.23;9.70;;;;;;;-2.00;95.48;102996.50;6215366;23;20004;-88
2024/01/08 00:47:43;;;;;;;15.60;8.45;;;;;;;-2.01;95.55;102984.44;6215950;23;20008;-88
2024/01/08 00:50:13;;;;;;;18.25;9.50;;;;;;;-2.00;95.36;102986.28;6241873;23;20090;-88
2024/01/08 00:52:39;;;;;;;17.42;10.13;;;;;;;-1.99;95.88;102987.19;6242148;23;20011;-87
2024/01/08 00:55:05;;;;;;;17.50;9.45;;;;;;;-2.00;95.37;102991.38;6215501;23;20000;-88
2024/01/08 00:57:34;;;;;;;19.20;10.48;;;;;;;-2.00;95.43;102993.00;6215446;23;20000;-87
2024/01/08 01:00:00;;;;;;;22.67;10.63;;;;;;;-1.99;95.86;102988.06;6241207;23;20011;-88
2024/01/08 01:02:25;;;;;;;19.23;10.63;;;;;;;-1.97;96.05;102988.22;6241611;23;20000;-88
2024/01/08 01:04:50;;;;;;;20.35;10.55;;;;;;;-1.97;95.84;102990.78;6242381;23;20328;-87
2024/01/08 01:07:16;;;;;;;20.38;10.90;;;;;;;-1.97;96.07;102991.72;6215221;23;20035;-88
2024/01/08 01:09:41;;;;;;;23.48;12.18;;;;;;;-1.95;96.46;102991.88;6215175;23;20660;-88
2024/01/08 01:12:06;;;;;;;26.73;13.77;;;;;;;-1.96;96.54;102993.50;6242451;23;20031;-88
2024/01/08 01:14:32;;;;;;;29.95;15.05;;;;;;;-1.96;96.35;102990.94;6215010;23;20012;-88
2024/01/08 01:16:57;;;;;;;28.50;15.05;;;;;;;-1.96;96.11;103002.81;6242620;23;20037;-88
2024/01/08 01:19:23;;;;;;;26.08;14.85;;;;;;;-1.97;96.25;103001.00;6242221;23;20069;-88
2024/01/08 01:21:48;;;;;;;26.52;14.00;;;;;;;-1.98;95.92;102992.44;6214888;23;20008;-88
2024/01/08 01:24:14;;;;;;;22.83;12.18;;;;;;;-1.98;95.93;102995.00;6239470;23;20420;-87
2024/01/08 01:26:39;;;;;;;22.65;11.90;;;;;;;-1.99;95.98;102988.06;6240503;23;20530;-88
2024/01/08 01:29:04;;;;;;;19.90;10.30;;;;;;;-1.99;95.80;102995.72;6241411;23;20414;-88
2024/01/08 01:31:31;;;;;;;14.80;8.68;;;;;;;-2.00;95.18;102996.50;6215907;23;20034;-88
2024/01/08 01:33:56;;;;;;;18.10;8.68;;;;;;;-2.02;94.69;102990.28;6215512;23;20000;-88
2024/01/08 01:36:22;;;;;;;15.07;8.15;;;;;;;-2.02;94.34;102992.84;6215298;23;20000;-88
2024/01/08 01:38:47;;;;;;;14.85;8.38;;;;;;;-2.00;93.92;102993.00;6214728;23;20030;-88
2024/01/08 01:41:13;;;;;;;16.98;8.73;;;;;;;-2.01;93.98;102998.88;6241475;23;20011;-88
2024/01/08 01:43:38;;;;;;;16.45;8.85;;;;;;;-2.02;93.58;102997.06;6242161;23;20008;-88
2024/01/08 01:46:15;;;;;;;17.38;8.35;;;;;;;-2.03;93.28;102991.03;6214916;23;20103;-88
2024/01/08 01:48:40;;;;;;;15.43;7.78;;;;;;;-2.05;93.32;102989.97;6214799;23;20004;-88
2024/01/08 01:51:06;;;;;;;15.02;8.02;;;;;;;-2.06;93.51;102993.25;6215318;23;20031;-87
2024/01/08 01:53:32;;;;;;;13.52;7.78;;;;;;;-2.08;92.90;102992.19;6242358;23;20026;-88
2024/01/08 01:55:57;;;;;;;14.75;7.78;;;;;;;-2.07;93.22;102999.13;6241989;23;20427;-88
2024/01/08 01:58:24;;;;;;;15.50;8.18;;;;;;;-2.08;93.51;102999.84;6241693;23;20317;-88
2024/01/08 02:00:49;;;;;;;16.63;8.20;;;;;;;-2.06;92.64;103000.91;6214577;23;20011;-88
2024/01/08 02:03:15;;;;;;;15.00;7.53;;;;;;;-2.06;92.80;103003.47;6241231;23;19996;-88
2024/01/08 02:05:41;;;;;;;14.40;7.35;;;;;;;-2.07;92.71;103008.41;6214521;23;20015;-88
2024/01/08 02:08:07;;;;;;;13.43;7.38;;;;;;;-2.05;93.10;103001.84;6214150;23;20077;-88
2024/01/08 02:10:33;;;;;;;13.85;7.45;;;;;;;-2.06;93.35;103008.56;6240450;23;20007;-88
2024/01/08 02:13:00;;;;;;;14.13;7.50;;;;;;;-2.05;93.06;103007.84;6239448;23;20004;-88
2024/01/08 02:15:25;;;;;;;14.75;7.68;;;;;;;-2.02;92.64;103013.28;6215331;23;20000;-88
2024/01/08 02:17:50;;;;;;;12.15;6.75;;;;;;;-2.02;93.00;103008.19;6215462;23;20162;-88
2024/01/08 02:20:16;;;;;;;10.32;6.15;;;;;;;-2.04;94.09;103008.75;6214869;23;20004;-88
2024/01/08 02:22:42;;;;;;;11.85;6.50;;;;;;;-2.05;93.52;103002.75;6241201;23;20066;-88
2024/01/08 02:25:11;;;;;;;10.13;6.13;;;;;;;-2.07;93.84;103010.97;6214612;23;20028;-87
2024/01/08 02:27:36;;;;;;;10.70;5.65;;;;;;;-2.10;93.70;103003.88;6212355;23;20035;-87
2024/01/08 02:30:01;;;;;;;9.25;5.63;;;;;;;-2.14;93.61;103015.41;6215165;23;20008;-88
2024/01/08 02:32:27;;;;;;;10.23;5.55;;;;;;;-2.18;93.61;103008.16;6214392;23;20363;-88
2024/01/08 02:34:52;;;;;;;11.32;5.90;;;;;;;-2.21;93.25;103017.13;6215903;23;20577;-89
2024/01/08 02:37:17;;;;;;;9.73;5.47;;;;;;;-2.22;93.02;103007.66;6244536;23;20316;-88
2024/01/08 02:39:43;;;;;;;9.43;5.25;;;;;;;-2.27;93.22;103018.25;6245533;23;20046;-89
2024/01/08 02:42:08;;;;;;;10.25;5.38;;;;;;;-2.29;93.12;103016.25;6217769;23;20035;-89
2024/01/08 02:44:34;;;;;;;9.75;5.10;;;;;;;-2.31;93.71;103023.75;6241407;23;20078;-88
2024/01/08 02:46:59;;;;;;;8.77;4.82;;;;;;;-2.35;93.40;103024.16;6241216;23;20004;-88
2024/01/08 02:49:27;;;;;;;8.98;4.93;;;;;;;-2.39;93.14;103031.31;6241538;23;20080;-89
2024/01/08 02:51:53;;;;;;;10.13;5.18;;;;;;;-2.42;93.35;103031.84;6244998;23;20004;-89
2024/01/08 02:54:18;;;;;;;10.75;5.20;;;;;;;-2.43;93.78;103031.69;6218019;23;20015;-89
2024/01/08 02:56:43;;;;;;;11.55;5.22;;;;;;;-2.46;93.84;103037.38;6218903;23;20026;-89
2024/01/08 02:59:09;;;;;;;9.35;4.85;;;;;;;-2.49;93.84;103034.47;6218429;23;20000;-88
2024/01/08 03:01:36;;;;;;;10.82;4.78;;;;;;;-2.53;94.38;103033.22;6217873;23;20015;-88
2024/01/08 03:04:01;;;;;;;10.30;4.72;;;;;;;-2.55;94.30;103036.34;6217815;23;20046;-89
2024/01/08 03:06:26;;;;;;;9.45;4.63;;;;;;;-2.58;94.18;103036.00;6245063;23;20016;-89
2024/01/08 03:08:52;;;;;;;8.65;4.78;;;;;;;-2.59;94.29;103039.28;6245291;22;20424;-88
2024/01/08 03:11:17;;;;;;;9.73;4.78;;;;;;;-2.60;94.10;103040.03;6245025;23;20032;-88
2024/01/08 03:13:42;;;;;;;10.45;5.18;;;;;;;-2.64;94.27;103037.16;6244716;23;19996;-88
2024/01/08 03:16:08;;;;;;;8.52;4.80;;;;;;;-2.67;94.52;103034.22;6218543;23;20061;-89
2024/01/08 03:18:33;;;;;;;9.80;4.95;;;;;;;-2.68;94.90;103034.06;6218155;23;20011;-89
2024/01/08 03:20:58;;;;;;;10.20;4.90;;;;;;;-2.70;94.83;103028.78;6218507;23;20450;-89
2024/01/08 03:23:24;;;;;;;9.93;4.97;;;;;;;-2.71;95.15;103029.53;6218116;23;20097;-89
2024/01/08 03:25:49;;;;;;;10.95;5.03;;;;;;;-2.71;95.32;103027.00;6218461;23;20048;-88
2024/01/08 03:28:14;;;;;;;10.73;5.10;;;;;;;-2.71;95.52;103024.44;6244517;23;20011;-89
2024/01/08 03:30:40;;;;;;;10.80;4.95;;;;;;;-2.70;95.69;103031.34;6218865;23;20063;-89
2024/01/08 03:33:05;;;;;;;11.45;5.15;;;;;;;-2.71;95.76;103024.44;6218386;23;20015;-89
2024/01/08 03:35:31;;;;;;;10.13;5.15;;;;;;;-2.71;96.59;103029.53;6218853;23;20011;-89
2024/01/08 03:37:56;;;;;;;10.38;5.25;;;;;;;-2.70;96.17;103035.53;6245251;23;20079;-89
2024/01/08 03:40:22;;;;;;;11.00;5.05;;;;;;;-2.71;96.50;103034.66;6217818;23;20077;-89
2024/01/08 03:42:47;;;;;;;9.98;4.82;;;;;;;-2.70;96.39;103035.53;6218296;23;20019;-88
2024/01/08 03:45:13;;;;;;;11.73;5.05;;;;;;;-2.71;97.25;103039.75;6217422;23;20078;-89
2024/01/08 03:47:39;;;;;;;11.55;5.40;;;;;;;-2.70;97.45;103044.09;6216576;23;20000;-89
2024/01/08 03:50:06;;;;;;;9.65;4.88;;;;;;;-2.68;97.87;103037.53;6242673;23;20004;-89
2024/01/08 03:52:31;;;;;;;10.77;4.93;;;;;;;-2.67;97.68;103039.34;6216438;23;20004;-89
2024/01/08 03:54:57;;;;;;;9.90;5.15;;;;;;;-2.67;98.41;103039.34;6242176;23;20035;-89
2024/01/08 03:57:23;;;;;;;11.35;6.03;;;;;;;-2.65;98.35;103037.88;6216750;23;20579;-89
2024/01/08 03:59:49;;;;;;;11.93;5.85;;;;;;;-2.67;97.83;103033.34;6243424;23;20004;-89
2024/01/08 04:02:14;;;;;;;12.32;5.40;;;;;;;-2.67;98.46;103034.22;6216628;23;20458;-89
2024/01/08 04:04:42;;;;;;;10.68;5.50;;;;;;;-2.66;98.54;103041.16;6216317;23;20542;-88
2024/01/08 04:07:08;;;;;;;10.95;5.00;;;;;;;-2.66;98.72;103043.72;6217822;23;20031;-88
2024/01/08 04:09:34;;;;;;;9.32;4.95;;;;;;;-2.64;99.04;103039.69;6217532;23;20362;-88
2024/01/08 04:11:59;;;;;;;10.63;5.22;;;;;;;-2.66;98.62;103035.16;6244514;23;20060;-88
2024/01/08 04:14:24;;;;;;;10.65;4.97;;;;;;;-2.63;98.57;103035.50;6220505;23;20611;-88
2024/01/08 04:16:50;;;;;;;10.85;5.13;;;;;;;-2.61;99.21;103044.22;6217353;23;20008;-88
2024/01/08 04:19:15;;;;;;;9.48;5.10;;;;;;;-2.59;99.19;103036.72;6243893;23;20000;-88
2024/01/08 04:21:40;;;;;;;10.75;5.25;;;;;;;-2.59;98.49;103039.28;6218967;23;20164;-88
2024/01/08 04:24:06;;;;;;;11.02;5.50;;;;;;;-2.60;98.60;103033.28;6218494;23;19996;-89
2024/01/08 04:26:31;;;;;;;9.80;4.65;;;;;;;-2.60;98.38;103032.38;6217108;23;20004;-88
2024/01/08 04:28:56;;;;;;;9.48;5.00;;;;;;;-2.60;98.58;103040.94;6215805;23;20431;-89
2024/01/08 04:31:22;;;;;;;11.32;5.53;;;;;;;-2.60;98.94;103042.59;6242716;23;20003;-89
2024/01/08 04:33:51;;;;;;;9.95;4.72;;;;;;;-2.58;98.99;103043.66;6243647;23;20004;-89
2024/01/08 04:36:16;;;;;;;12.45;5.55;;;;;;;-2.57;98.92;103036.19;6215273;23;20015;-89
2024/01/08 04:38:44;;;;;;;11.40;5.35;;;;;;;-2.56;98.76;103042.16;6216035;23;20008;-88
2024/01/08 04:41:10;;;;;;;9.95;5.03;;;;;;;-2.57;98.94;103046.38;6215225;23;20015;-89
2024/01/08 04:43:35;;;;;;;12.75;5.28;;;;;;;-2.56;99.11;103034.50;6216513;23;20363;-88
2024/01/08 04:46:00;;;;;;;8.65;4.65;;;;;;;-2.55;99.05;103039.81;6215922;23;20007;-88
2024/01/08 04:48:26;;;;;;;10.32;4.93;;;;;;;-2.54;98.84;103038.16;6242361;23;20058;-88
2024/01/08 04:50:51;;;;;;;9.75;4.95;;;;;;;-2.53;99.16;103034.88;6215671;23;20004;-88
2024/01/08 04:53:16;;;;;;;10.02;5.00;;;;;;;-2.52;99.07;103041.78;6242741;23;20061;-88
2024/01/08 04:55:42;;;;;;;10.30;4.80;;;;;;;-2.51;98.63;103039.41;6215638;23;20103;-88
2024/01/08 04:58:08;;;;;;;10.23;5.13;;;;;;;-2.51;98.35;103041.06;6215070;23;20465;-88
2024/01/08 05:00:33;;;;;;;9.60;4.63;;;;;;;-2.50;97.87;103045.44;6216052;23;20007;-88
2024/01/08 05:02:59;;;;;;;10.27;4.75;;;;;;;-2.50;98.19;103037.78;6241882;23;20031;-88
2024/01/08 05:05:24;;;;;;;11.98;5.55;;;;;;;-2.48;98.50;103038.84;6242731;23;20026;-88
2024/01/08 05:07:49;;;;;;;9.77;5.22;;;;;;;-2.50;98.01;103038.66;6215455;22;20018;-89
2024/01/08 05:10:15;;;;;;;9.45;5.05;;;;;;;-2.50;97.93;103028.47;6216020;23;20090;-89
2024/01/08 05:12:40;;;;;;;9.70;5.07;;;;;;;-2.49;98.37;103048.16;6242909;23;20004;-88
2024/01/08 05:15:06;;;;;;;10.32;4.88;;;;;;;-2.48;98.22;103038.84;6215886;23;20082;-89
2024/01/08 05:17:31;;;;;;;10.50;5.15;;;;;;;-2.46;97.98;103032.28;6243375;23;20007;-89
2024/01/08 05:19:57;;;;;;;10.73;4.93;;;;;;;-2.46;98.18;103033.19;6216032;23;20447;-88
2024/01/08 05:22:22;;;;;;;10.10;5.68;;;;;;;-2.46;98.53;103037.38;6216032;23;20087;-89
2024/01/08 05:24:48;;;;;;;10.95;5.22;;;;;;;-2.45;99.08;103039.19;6242647;23;20003;-89
2024/01/08 05:27:13;;;;;;;10.75;5.25;;;;;;;-2.45;99.25;103035.00;6216152;23;20035;-89
2024/01/08 05:29:38;;;;;;;10.10;5.55;;;;;;;-2.43;99.38;103035.19;6242112;23;20026;-89
2024/01/08 05:32:05;;;;;;;11.82;6.15;;;;;;;-2.44;99.75;103038.47;6214659;23;20003;-89
2024/01/08 05:34:31;;;;;;;12.02;5.75;;;;;;;-2.43;99.75;103027.50;6214953;23;20004;-89
2024/01/08 05:36:56;;;;;;;9.85;4.95;;;;;;;-2.43;100.00;103032.63;6243243;23;20058;-88
2024/01/08 05:39:22;;;;;;;10.52;5.47;;;;;;;-2.42;100.00;103036.06;6215792;23;20061;-89
2024/01/08 05:41:47;;;;;;;10.45;5.65;;;;;;;-2.42;100.00;103036.97;6240820;23;20015;-87
2024/01/08 05:44:13;;;;;;;10.88;5.80;;;;;;;-2.42;100.00;103034.41;6242360;23;20004;-89
2024/01/08 05:46:42;;;;;;;10.88;5.55;;;;;;;-2.40;100.00;103032.03;6214799;23;20007;-89
2024/01/08 05:49:07;;;;;;;11.10;6.13;;;;;;;-2.42;100.00;103024.19;6214719;23;20011;-89
2024/01/08 05:51:33;;;;;;;13.63;6.07;;;;;;;-2.40;100.00;103032.03;6215333;23;20004;-89
2024/01/08 05:53:58;;;;;;;11.45;5.72;;;;;;;-2.39;100.00;103027.13;6242110;23;20015;-88
2024/01/08 05:56:23;;;;;;;11.80;6.28;;;;;;;-2.38;100.00;103031.47;6215494;23;20468;-89
2024/01/08 05:58:49;;;;;;;13.55;6.05;;;;;;;-2.38;100.00;103033.13;6215246;23;20054;-89
2024/01/08 06:01:14;;;;;;;12.68;6.20;;;;;;;-2.37;100.00;103032.41;6242350;23;20008;-89
2024/01/08 06:03:39;;;;;;;11.80;6.40;;;;;;;-2.36;100.00;103032.56;6241952;23;20035;-89
2024/01/08 06:06:05;;;;;;;13.13;6.45;;;;;;;-2.34;100.00;103028.53;6242419;23;20040;-89
2024/01/08 06:08:31;;;;;;;14.55;7.22;;;;;;;-2.33;100.00;103027.78;6242150;22;20015;-89
2024/01/08 06:10:56;;;;;;;13.00;7.18;;;;;;;-2.34;100.00;103028.53;6240585;23;20057;-89
2024/01/08 06:13:25;;;;;;;15.02;6.80;;;;;;;-2.33;100.00;103035.47;6215330;23;20004;-92
2024/01/08 06:15:51;;;;;;;13.57;6.35;;;;;;;-2.32;100.00;103029.63;6242404;23;20008;-89
2024/01/08 06:18:16;;;;;;;13.30;6.78;;;;;;;-2.30;100.00;103028.13;6241758;23;20014;-87
2024/01/08 06:20:42;;;;;;;15.40;7.90;;;;;;;-2.29;100.00;103029.03;6242117;23;20004;-88
2024/01/08 06:23:07;;;;;;;13.77;6.72;;;;;;;-2.27;100.00;103025.03;6215006;23;20000;-89
2024/01/08 06:25:33;;;;;;;13.07;6.97;;;;;;;-2.28;100.00;103024.09;6214464;23;20458;-88
2024/01/08 06:27:58;;;;;;;17.15;7.65;;;;;;;-2.27;100.00;103025.03;6242138;23;20007;-88
2024/01/08 06:30:24;;;;;;;15.00;6.97;;;;;;;-2.27;100.00;103031.03;6215033;23;20457;-88
2024/01/08 06:32:49;;;;;;;13.25;6.72;;;;;;;-2.25;100.00;103030.28;6215003;23;20483;-88
2024/01/08 06:35:14;;;;;;;13.50;6.78;;;;;;;-2.24;100.00;103024.44;6214398;23;20008;-88
2024/01/08 06:37:40;;;;;;;12.63;6.65;;;;;;;-2.23;100.00;103027.19;6242080;23;20008;-88
2024/01/08 06:40:06;;;;;;;12.57;6.15;;;;;;;-2.21;100.00;103032.44;6242036;23;20071;-88
2024/01/08 06:42:32;;;;;;;15.30;6.75;;;;;;;-2.20;100.00;103018.91;6215190;23;20031;-88
2024/01/08 06:44:57;;;;;;;15.25;7.03;;;;;;;-2.20;100.00;103022.41;6241483;23;20000;-88
2024/01/08 06:47:22;;;;;;;13.98;6.93;;;;;;;-2.19;100.00;103028.41;6215290;23;20001;-89
2024/01/08 06:49:48;;;;;;;13.93;7.05;;;;;;;-2.20;100.00;103011.25;6242009;23;20004;-89
2024/01/08 06:52:13;;;;;;;14.15;7.32;;;;;;;-2.19;100.00;103024.19;6214835;23;20043;-88
2024/01/08 06:54:39;;;;;;;14.25;6.93;;;;;;;-2.17;100.00;103024.38;6215554;23;20008;-88
2024/01/08 06:57:04;;;;;;;16.17;7.90;;;;;;;-2.18;100.00;103015.81;6214628;23;20015;-88
2024/01/08 06:59:30;;;;;;;14.90;7.50;;;;;;;-2.16;100.00;103018.53;6242413;23;20035;-88
2024/01/08 07:01:55;;;;;;;16.52;7.80;;;;;;;-2.16;100.00;103024.56;6242106;23;20008;-88
2024/01/08 07:04:20;;;;;;;15.23;7.50;;;;;;;-2.14;100.00;103022.16;6214563;23;20024;-88
2024/01/08 07:06:46;;;;;;;13.07;7.15;;;;;;;-2.12;100.00;103023.25;6213735;23;20332;-88
2024/01/08 07:09:11;;;;;;;15.50;7.45;;;;;;;-2.13;100.00;103024.91;6214869;23;20004;-88
2024/01/08 07:11:37;;;;;;;13.82;7.10;;;;;;;-2.12;100.00;103030.91;6215095;23;20090;-88
2024/01/08 07:14:02;;;;;;;15.38;8.40;;;;;;;-2.10;100.00;103039.63;6214955;23;20003;-88
2024/01/08 07:16:28;;;;;;;14.75;7.63;;;;;;;-2.11;100.00;103031.06;6241921;23;20011;-89
2024/01/08 07:18:54;;;;;;;15.05;7.68;;;;;;;-2.10;100.00;103037.06;6241392;23;20015;-89
2024/01/08 07:21:20;;;;;;;16.30;8.85;;;;;;;-2.08;100.00;103042.38;6240583;23;20007;-89
2024/01/08 07:23:47;;;;;;;18.40;7.88;;;;;;;-2.07;100.00;103041.63;6242087;23;19993;-89
2024/01/08 07:26:14;;;;;;;14.07;7.45;;;;;;;-2.07;100.00;103050.22;6216783;23;20439;-89
2024/01/08 07:28:41;;;;;;;16.02;8.20;;;;;;;-2.05;100.00;103043.59;6242885;23;20131;-88
2024/01/08 07:31:07;;;;;;;14.93;7.80;;;;;;;-2.02;100.00;103048.16;6216914;23;20007;-89
2024/01/08 07:33:34;;;;;;;15.80;8.05;;;;;;;-2.03;100.00;103044.66;6243653;23;20354;-87
2024/01/08 07:35:59;;;;;;;15.90;8.85;;;;;;;-2.00;100.00;103052.69;6216779;23;20008;-88
2024/01/08 07:38:26;;;;;;;16.77;8.27;;;;;;;-1.98;100.00;103056.31;6215655;23;20004;-87
2024/01/08 07:40:51;;;;;;;16.63;8.02;;;;;;;-1.98;100.00;103048.66;6216385;23;20083;-88
2024/01/08 07:43:16;;;;;;;15.05;7.97;;;;;;;-1.96;100.00;103054.81;6243567;23;20031;-87
2024/01/08 07:45:42;;;;;;;16.13;8.35;;;;;;;-1.96;100.00;103044.59;6216676;23;20004;-88
2024/01/08 07:48:07;;;;;;;16.73;8.18;;;;;;;-1.94;100.00;103061.03;6243223;23;20003;-88
2024/01/08 07:50:32;;;;;;;16.35;8.38;;;;;;;-1.93;100.00;103065.41;6217170;23;20000;-87
2024/01/08 07:52:58;;;;;;;16.17;7.93;;;;;;;-1.89;100.00;103065.75;6216017;23;20335;-87
2024/01/08 07:55:23;;;;;;;15.80;8.18;;;;;;;-1.89;100.00;103063.19;6243483;23;20336;-88
2024/01/08 07:57:49;;;;;;;16.30;8.40;;;;;;;-1.87;100.00;103061.69;6243504;23;20022;-88
2024/01/08 08:00:15;;;;;;;15.05;7.40;;;;;;;-1.87;100.00;103054.03;6217070;23;20008;-88
2024/01/08 08:02:40;;;;;;;14.90;8.10;;;;;;;-1.87;100.00;103054.91;6216375;23;20072;-88
2024/01/08 08:05:05;;;;;;;15.07;7.53;;;;;;;-1.86;100.00;103056.75;6215850;23;20083;-89
2024/01/08 08:07:32;;;;;;;13.93;7.32;;;;;;;-1.85;100.00;103062.78;6216274;22;20004;-90
2024/01/08 08:09:58;;;;;;;13.43;7.07;;;;;;;-1.87;100.00;103065.13;6243673;23;20056;-90
2024/01/08 08:12:24;;;;;;;14.10;7.70;;;;;;;-1.86;100.00;103066.97;6215846;23;20447;-90
2024/01/08 08:14:49;;;;;;;12.85;7.03;;;;;;;-1.83;100.00;103074.97;6242913;23;20034;-88
2024/01/08 08:17:15;;;;;;;13.73;7.13;;;;;;;-1.84;100.00;103070.63;6214908;23;20047;-88
2024/01/08 08:19:45;;;;;;;14.50;7.13;;;;;;;-1.81;100.00;103072.56;6241889;23;20042;-87
2024/01/08 08:22:14;;;;;;;16.15;7.28;;;;;;;-1.80;100.00;103064.19;6242695;23;20077;-88
2024/01/08 08:24:40;;;;;;;13.63;7.35;;;;;;;-1.80;100.00;103066.72;6215698;23;20126;-87
2024/01/08 08:27:09;;;;;;;14.15;7.22;;;;;;;-1.79;100.00;103073.66;6215972;23;20439;-88
2024/01/08 08:29:37;;;;;;;12.85;7.00;;;;;;;-1.78;100.00;103070.38;6216153;23;20439;-88
2024/01/08 08:32:03;;;;;;;11.57;6.57;;;;;;;-1.78;100.00;103073.84;6215408;23;20004;-88
2024/01/08 08:34:28;;;;;;;15.02;6.88;;;;;;;-1.78;100.00;103075.50;6214553;23;20035;-88
2024/01/08 08:36:54;;;;;;;14.60;7.57;;;;;;;-1.76;100.00;103069.78;6243043;23;20004;-88
2024/01/08 08:39:19;;;;;;;11.65;6.13;;;;;;;-1.75;100.00;103078.38;6242757;23;20012;-89
2024/01/08 08:41:45;;;;;;;12.65;6.95;;;;;;;-1.75;100.00;103074.16;6242949;23;20012;-88
2024/01/08 08:44:12;;;;;;;13.57;6.72;;;;;;;-1.74;100.00;103082.72;6216320;23;20011;-88
2024/01/08 08:46:38;;;;;;;11.88;6.40;;;;;;;-1.73;100.00;103083.66;6243331;23;20024;-87
2024/01/08 08:49:05;;;;;;;13.25;6.95;;;;;;;-1.73;100.00;103079.44;6216409;23;20011;-88
2024/01/08 08:51:31;;;;;;;11.20;6.65;;;;;;;-1.71;100.00;103088.16;6216181;23;20015;-88
2024/01/08 08:53:59;;;;;;;11.40;6.22;;;;;;;-1.71;100.00;103080.50;6243255;23;20004;-88
2024/01/08 08:56:25;;;;;;;11.52;6.32;;;;;;;-1.70;100.00;103078.88;6215924;23;20462;-89
2024/01/08 08:58:50;;;;;;;11.27;6.25;;;;;;;-1.69;100.00;103079.03;6243369;23;20000;-87
2024/01/08 09:01:17;;;;;;;11.75;6.13;;;;;;;-1.69;100.00;103081.59;6216284;23;20008;-88
2024/01/08 09:03:43;;;;;;;10.85;6.03;;;;;;;-1.70;100.00;103079.78;6243504;23;20008;-87
2024/01/08 09:06:08;;;;;;;12.43;6.50;;;;;;;-1.68;100.00;103079.94;6216012;23;20012;-88
2024/01/08 09:08:34;;;;;;;12.98;6.22;;;;;;;-1.68;100.00;103088.53;6215767;23;20027;-88
2024/01/08 09:10:59;;;;;;;11.45;6.07;;;;;;;-1.68;100.00;103085.97;6216091;23;20004;-88
2024/01/08 09:13:24;;;;;;;11.73;6.65;;;;;;;-1.71;100.00;103082.16;6216150;23;20423;-88
2024/01/08 09:15:50;;;;;;;18.33;6.38;;;;;;;-1.71;100.00;103089.81;6215461;23;20015;-88
2024/01/08 09:18:15;;;;;;;11.70;6.00;;;;;;;-1.71;100.00;103085.63;6243026;23;20008;-88
2024/01/08 09:20:42;;;;;;;11.63;6.43;;;;;;;-1.70;100.00;103095.09;6216197;23;20004;-88
2024/01/08 09:23:07;;;;;;;12.52;6.47;;;;;;;-1.69;100.00;103096.94;6216209;23;20004;-88
2024/01/08 09:25:33;;;;;;;11.75;6.10;;;;;;;-1.68;100.00;103098.75;6242097;23;20004;-88
2024/01/08 09:27:58;;;;;;;12.38;6.43;;;;;;;-1.66;100.00;103101.47;6242624;23;20335;-88
2024/01/08 09:30:23;;;;;;;13.07;6.60;;;;;;;-1.67;100.00;103094.53;6216107;23;20011;-88
2024/01/08 09:32:49;;;;;;;13.45;6.57;;;;;;;-1.65;100.00;103104.19;6216050;23;20008;-88
2024/01/08 09:35:14;;;;;;;11.27;6.18;;;;;;;-1.66;100.00;103104.94;6215478;23;20004;-88
2024/01/08 09:37:40;;;;;;;10.00;6.05;;;;;;;-1.64;100.00;103108.53;6215816;23;20004;-88
2024/01/08 09:40:06;;;;;;;13.80;7.00;;;;;;;-1.64;100.00;103111.09;6242701;23;20007;-89
2024/01/08 09:42:33;;;;;;;12.18;6.38;;;;;;;-1.64;100.00;103111.09;6242667;23;20078;-89
2024/01/08 09:45:02;;;;;;;12.82;6.55;;;;;;;-1.62;100.00;103122.41;6215462;23;20039;-89
2024/01/08 09:47:29;;;;;;;14.23;7.28;;;;;;;-1.62;100.00;103108.75;6215634;23;20015;-89
2024/01/08 09:49:56;;;;;;;12.88;7.15;;;;;;;-1.64;100.00;103112.75;6214759;23;20472;-89
2024/01/08 09:52:22;;;;;;;14.32;6.80;;;;;;;-1.66;100.00;103116.81;6214010;23;20000;-90
2024/01/08 09:54:48;;;;;;;12.68;6.80;;;;;;;-1.67;100.00;103110.78;6241254;23;20000;-90
2024/01/08 09:57:13;;;;;;;13.95;7.47;;;;;;;-1.64;100.00;103120.44;6214513;23;20309;-90
2024/01/08 09:59:39;;;;;;;14.00;7.05;;;;;;;-1.62;100.00;103114.75;6214391;23;20011;-90
2024/01/08 10:02:13;;;;;;;14.10;7.25;;;;;;;-1.61;100.00;103119.13;6241255;23;20054;-89
2024/01/08 10:04:39;;;;;;;12.32;6.85;;;;;;;-1.59;100.00;103120.19;6214783;23;20000;-90
2024/01/08 10:07:08;;;;;;;11.02;6.80;;;;;;;-1.60;100.00;103128.59;6215861;23;20473;-90
2024/01/08 10:09:34;;;;;;;11.90;6.22;;;;;;;-1.61;100.00;103121.69;6242767;22;20008;-89
2024/01/08 10:11:59;;;;;;;16.50;7.57;;;;;;;-1.58;100.00;103124.59;6216157;23;20015;-89
2024/01/08 10:14:28;;;;;;;14.27;7.63;;;;;;;-1.55;100.00;103123.09;6216005;23;20008;-90
2024/01/08 10:16:54;;;;;;;14.43;6.85;;;;;;;-1.54;100.00;103123.25;6216280;23;20010;-90
2024/01/08 10:19:23;;;;;;;14.13;7.15;;;;;;;-1.52;100.00;103116.69;6242921;23;20004;-90
2024/01/08 10:22:11;;;;;;;15.50;7.78;;;;;;;-1.51;100.00;103118.47;6243072;23;20481;-90
2024/01/08 10:24:38;;;;;;;13.38;7.03;;;;;;;-1.50;100.00;103109.16;6216395;23;20012;-90
2024/01/08 10:27:04;;;;;;;12.75;6.65;;;;;;;-1.48;100.00;103112.78;6216430;23;20004;-90
2024/01/08 10:29:30;;;;;;;11.57;6.43;;;;;;;-1.47;100.00;103118.06;6215884;23;20135;-90
2024/01/08 10:31:55;;;;;;;12.82;6.32;;;;;;;-1.43;100.00;103110.00;6215821;23;20047;-90
2024/01/08 10:34:21;;;;;;;13.90;7.40;;;;;;;-1.38;100.00;103107.94;6242896;23;20012;-90
2024/01/08 10:36:48;;;;;;;12.48;7.47;;;;;;;-1.33;100.00;103106.78;6215827;23;20008;-90
2024/01/08 10:39:15;;;;;;;12.63;6.95;;;;;;;-1.32;100.00;103111.19;6242828;23;20023;-90
2024/01/08 10:41:40;;;;;;;12.93;6.32;;;;;;;-1.33;100.00;103108.41;6242192;23;20000;-90
2024/01/08 10:44:06;;;;;;;11.88;6.97;;;;;;;-1.35;100.00;103105.69;6216024;23;20054;-90
2024/01/08 10:46:56;;;;;;;12.05;6.72;;;;;;;-1.35;100.00;103089.47;6242748;23;20000;-89
2024/01/08 10:49:36;;;;;;;11.07;6.07;;;;;;;-1.36;100.00;103091.13;6242808;23;20004;-90
2024/01/08 10:52:09;;;;;;;11.35;6.55;;;;;;;-1.35;100.00;103092.91;6216061;23;20000;-89
2024/01/08 10:54:42;;;;;;;12.05;6.78;;;;;;;-1.33;100.00;103088.91;6215960;23;20012;-90
2024/01/08 10:57:12;;;;;;;12.35;6.78;;;;;;;-1.29;100.00;103085.94;6217731;23;20015;-89
2024/01/08 10:59:39;;;;;;;11.48;6.15;;;;;;;-1.29;100.00;103075.69;6244678;23;20019;-90
2024/01/08 11:02:06;;;;;;;10.73;6.30;;;;;;;-1.28;100.00;103085.16;6244731;23;20007;-89
2024/01/08 11:04:31;;;;;;;12.00;6.85;;;;;;;-1.27;100.00;103079.31;6217989;23;20074;-89
2024/01/08 11:06:59;;;;;;;11.40;6.63;;;;;;;-1.25;100.00;103084.59;6217623;23;20046;-89
2024/01/08 11:09:25;;;;;;;11.88;6.88;;;;;;;-1.24;99.87;103079.63;6244350;22;20087;-90